createdAt,value
2023-04-15T00:00:57.527Z,97364.13
2023-04-15T00:03:24.682Z,97365.28
2023-04-15T00:05:51.994Z,97354.19
2023-04-15T00:08:18.575Z,97351.09
2023-04-15T00:10:46.672Z,97348.59
2023-04-15T00:13:13.476Z,97345.66
2023-04-15T00:15:40.452Z,97350.94
2023-04-15T00:18:08.208Z,97351.69
2023-04-15T00:20:35.352Z,97350.66
2023-04-15T00:23:02.619Z,97352.41
2023-04-15T00:25:29.390Z,97353.56
2023-04-15T00:27:55.899Z,97349.47
2023-04-15T00:30:23.863Z,97352.06
2023-04-15T00:32:50.574Z,97351.13
2023-04-15T00:35:22.263Z,97351.31
2023-04-15T00:37:50.375Z,97347.84
2023-04-15T00:40:18.900Z,97344.31
2023-04-15T00:42:45.711Z,97343.59
2023-04-15T00:45:12.915Z,97341.59
2023-04-15T00:47:42.140Z,97341.84
2023-04-15T00:50:09.460Z,97349.88
2023-04-15T00:52:36.222Z,97336.16
2023-04-15T00:55:04.619Z,97345.63
2023-04-15T00:57:31.708Z,97347.53
2023-04-15T00:59:58.373Z,97349.00
2023-04-15T01:02:25.045Z,97344.75
2023-04-15T01:04:52.053Z,97347.66
2023-04-15T01:07:18.840Z,97348.91
2023-04-15T01:09:45.716Z,97349.53
2023-04-15T01:12:13.158Z,97341.59
2023-04-15T01:14:39.818Z,97348.06
2023-04-15T01:17:06.314Z,97348.19
2023-04-15T01:19:32.956Z,97349.41
2023-04-15T01:21:59.465Z,97343.38
2023-04-15T01:24:27.154Z,97354.03
2023-04-15T01:26:54.360Z,97350.47
2023-04-15T01:29:21.385Z,97362.72
2023-04-15T01:31:56.088Z,97349.59
2023-04-15T01:34:25.884Z,97344.38
2023-04-15T01:36:53.853Z,97348.94
2023-04-15T01:39:21.635Z,97355.31
2023-04-15T01:41:48.606Z,97354.91
2023-04-15T01:44:16.374Z,97347.16
2023-04-15T01:46:43.080Z,97352.75
2023-04-15T01:49:09.603Z,97348.16
2023-04-15T01:51:36.101Z,97343.81
2023-04-15T01:54:02.665Z,97346.22
2023-04-15T01:56:29.900Z,97339.13
2023-04-15T01:58:56.956Z,97340.91
2023-04-15T02:01:23.732Z,97332.75
2023-04-15T02:03:50.777Z,97327.75
2023-04-15T02:06:21.030Z,97334.00
2023-04-15T02:08:48.000Z,97337.59
2023-04-15T02:11:15.431Z,97339.13
2023-04-15T02:13:42.281Z,97333.47
2023-04-15T02:16:21.380Z,97325.84
2023-04-15T02:18:48.147Z,97327.94
2023-04-15T02:21:15.201Z,97333.47
2023-04-15T02:23:41.803Z,97332.84
2023-04-15T02:26:08.344Z,97336.06
2023-04-15T02:28:35.001Z,97334.63
2023-04-15T02:31:06.443Z,97328.44
2023-04-15T02:33:33.174Z,97330.44
2023-04-15T02:36:00.554Z,97330.22
2023-04-15T02:38:27.875Z,97327.28
2023-04-15T02:40:54.610Z,97333.16
2023-04-15T02:43:21.122Z,97327.50
2023-04-15T02:45:48.171Z,97332.88
2023-04-15T02:48:14.856Z,97329.78
2023-04-15T02:50:41.373Z,97341.66
2023-04-15T02:53:10.087Z,97336.06
2023-04-15T02:55:36.822Z,97332.84
2023-04-15T02:58:03.384Z,97332.31
2023-04-15T03:00:30.140Z,97325.00
2023-04-15T03:03:03.427Z,97329.06
2023-04-15T03:05:30.581Z,97326.78
2023-04-15T03:07:57.336Z,97328.91
2023-04-15T03:10:23.928Z,97333.47
2023-04-15T03:12:50.727Z,97340.47
2023-04-15T03:15:19.358Z,97339.38
2023-04-15T03:17:49.794Z,97335.63
2023-04-15T03:20:17.097Z,97345.34
2023-04-15T03:22:43.742Z,97339.59
2023-04-15T03:25:10.654Z,97337.22
2023-04-15T03:27:38.391Z,97329.13
2023-04-15T03:30:06.650Z,97323.19
2023-04-15T03:32:35.701Z,97324.66
2023-04-15T03:35:02.386Z,97324.22
2023-04-15T03:37:29.005Z,97319.03
2023-04-15T03:39:56.524Z,97332.34
2023-04-15T03:42:23.249Z,97321.44
2023-04-15T03:44:49.834Z,97323.66
2023-04-15T03:47:16.382Z,97328.50
2023-04-15T03:49:42.900Z,97324.13
2023-04-15T03:52:09.423Z,97322.69
2023-04-15T03:54:36.110Z,97325.97
2023-04-15T03:57:02.746Z,97326.84
2023-04-15T03:59:29.364Z,97318.81
2023-04-15T04:01:56.068Z,97319.28
2023-04-15T04:04:22.756Z,97324.50
2023-04-15T04:06:49.351Z,97328.25
2023-04-15T04:09:16.230Z,97331.25
2023-04-15T04:11:42.777Z,97326.47
2023-04-15T04:14:09.319Z,97331.91
2023-04-15T04:16:36.273Z,97331.34
2023-04-15T04:19:03.210Z,97342.13
2023-04-15T04:21:30.767Z,97344.44
2023-04-15T04:23:57.343Z,97341.34
2023-04-15T04:26:23.877Z,97345.00
2023-04-15T04:28:50.698Z,97342.31
2023-04-15T04:31:17.193Z,97348.34
2023-04-15T04:33:43.721Z,97350.38
2023-04-15T04:36:10.470Z,97343.13
2023-04-15T04:38:36.987Z,97348.31
2023-04-15T04:41:03.507Z,97337.91
2023-04-15T04:43:30.023Z,97348.91
2023-04-15T04:45:56.569Z,97352.06
2023-04-15T04:48:23.106Z,97340.59
2023-04-15T04:50:49.743Z,97357.56
2023-04-15T04:53:16.298Z,97354.50
2023-04-15T04:55:42.818Z,97349.28
2023-04-15T04:58:09.349Z,97351.09
2023-04-15T05:00:37.388Z,97353.72
2023-04-15T05:03:04.284Z,97355.75
2023-04-15T05:05:31.441Z,97353.69
2023-04-15T05:07:57.961Z,97345.94
2023-04-15T05:10:24.447Z,97347.19
2023-04-15T05:12:51.940Z,97347.84
2023-04-15T05:15:18.479Z,97346.47
2023-04-15T05:17:45.139Z,97352.56
2023-04-15T05:20:12.394Z,97345.16
2023-04-15T05:22:38.894Z,97347.50
2023-04-15T05:25:05.773Z,97343.59
2023-04-15T05:27:32.282Z,97351.34
2023-04-15T05:29:58.872Z,97351.75
2023-04-15T05:32:25.614Z,97359.53
2023-04-15T05:34:52.246Z,97357.69
2023-04-15T05:37:20.888Z,97364.25
2023-04-15T05:39:48.351Z,97356.97
2023-04-15T05:42:14.984Z,97356.69
2023-04-15T05:44:41.917Z,97358.09
2023-04-15T05:47:09.684Z,97357.94
2023-04-15T05:49:36.469Z,97365.31
2023-04-15T05:52:03.333Z,97358.59
2023-04-15T05:54:29.897Z,97363.31
2023-04-15T05:56:57.627Z,97376.81
2023-04-15T05:59:24.169Z,97370.28
2023-04-15T06:01:52.220Z,97369.47
2023-04-15T06:04:18.922Z,97366.19
2023-04-15T06:06:45.585Z,97380.81
2023-04-15T06:09:12.114Z,97377.78
2023-04-15T06:11:38.632Z,97369.84
2023-04-15T06:14:05.244Z,97376.00
2023-04-15T06:16:32.297Z,97384.94
2023-04-15T06:18:58.933Z,97380.16
2023-04-15T06:21:25.704Z,97388.97
2023-04-15T06:23:52.293Z,97393.44
2023-04-15T06:26:18.803Z,97386.66
2023-04-15T06:28:45.359Z,97387.97
2023-04-15T06:31:11.940Z,97386.41
2023-04-15T06:33:39.607Z,97392.41
2023-04-15T06:36:06.311Z,97391.78
2023-04-15T06:38:32.811Z,97395.56
2023-04-15T06:40:59.433Z,97397.63
2023-04-15T06:43:26.476Z,97396.31
2023-04-15T06:45:54.929Z,97395.28
2023-04-15T06:48:22.613Z,97406.09
2023-04-15T06:50:49.502Z,97398.50
2023-04-15T06:53:16.205Z,97399.56
2023-04-15T06:55:42.759Z,97393.16
2023-04-15T06:58:09.311Z,97393.91
2023-04-15T07:00:38.895Z,97399.00
2023-04-15T07:03:05.638Z,97396.66
2023-04-15T07:05:32.478Z,97395.81
2023-04-15T07:07:59.035Z,97388.75
2023-04-15T07:10:31.184Z,97390.03
2023-04-15T07:12:57.730Z,97393.75
2023-04-15T07:15:24.229Z,97388.09
2023-04-15T07:17:51.303Z,97389.84
2023-04-15T07:20:17.939Z,97388.25
2023-04-15T07:22:44.466Z,97390.88
2023-04-15T07:25:11.135Z,97391.91
2023-04-15T07:27:37.713Z,97387.69
2023-04-15T07:30:04.569Z,97403.47
2023-04-15T07:32:31.202Z,97400.81
2023-04-15T07:34:58.498Z,97390.25
2023-04-15T07:37:25.364Z,97393.31
2023-04-15T07:39:54.442Z,97395.22
2023-04-15T07:42:22.048Z,97393.69
2023-04-15T07:44:48.689Z,97392.09
2023-04-15T07:47:15.196Z,97392.91
2023-04-15T07:49:43.408Z,97394.69
2023-04-15T07:52:09.997Z,97388.78
2023-04-15T07:54:36.529Z,97394.81
2023-04-15T07:57:05.666Z,97399.34
2023-04-15T07:59:33.492Z,97388.78
2023-04-15T08:02:00.524Z,97391.16
2023-04-15T08:04:27.511Z,97388.50
2023-04-15T08:06:54.788Z,97380.94
2023-04-15T08:09:21.572Z,97384.03
2023-04-15T08:11:51.281Z,97384.84
2023-04-15T08:14:17.895Z,97379.00
2023-04-15T08:16:44.425Z,97384.84
2023-04-15T08:19:11.482Z,97385.84
2023-04-15T08:21:38.745Z,97375.63
2023-04-15T08:24:06.176Z,97374.31
2023-04-15T08:26:32.786Z,97379.66
2023-04-15T08:28:59.426Z,97381.38
2023-04-15T08:31:27.354Z,97378.53
2023-04-15T08:33:54.828Z,97375.63
2023-04-15T08:36:21.530Z,97378.84
2023-04-15T08:38:48.109Z,97385.97
2023-04-15T08:41:23.224Z,97385.75
2023-04-15T08:44:07.806Z,97383.72
2023-04-15T08:46:38.450Z,97385.31
2023-04-15T08:49:05.462Z,97385.38
2023-04-15T08:51:32.736Z,97383.19
2023-04-15T08:53:59.824Z,97375.28
2023-04-15T08:56:27.032Z,97385.47
2023-04-15T08:58:53.993Z,97384.56
2023-04-15T09:01:21.523Z,97383.22
2023-04-15T09:03:49.384Z,97381.59
2023-04-15T09:06:18.863Z,97383.78
2023-04-15T09:08:45.728Z,97381.19
2023-04-15T09:11:12.332Z,97394.00
2023-04-15T09:13:39.166Z,97388.22
2023-04-15T09:16:06.899Z,97386.56
2023-04-15T09:18:35.597Z,97386.72
2023-04-15T09:21:11.345Z,97392.25
2023-04-15T09:26:37.902Z,97397.94
2023-04-15T09:29:13.826Z,97400.00
2023-04-15T09:31:41.199Z,97399.47
2023-04-15T09:34:07.885Z,97404.91
2023-04-15T09:36:54.996Z,97405.22
2023-04-15T09:39:21.635Z,97402.47
2023-04-15T09:42:04.625Z,97405.69
2023-04-15T09:44:31.376Z,97408.09
2023-04-15T09:46:57.844Z,97411.19
2023-04-15T09:49:24.407Z,97406.59
2023-04-15T09:52:03.927Z,97411.25
2023-04-15T09:54:36.607Z,97420.78
2023-04-15T09:57:13.200Z,97406.94
2023-04-15T09:59:40.037Z,97406.38
2023-04-15T10:02:07.513Z,97413.44
2023-04-15T10:04:40.795Z,97420.34
2023-04-15T10:07:09.453Z,97413.69
2023-04-15T10:09:36.690Z,97409.31
2023-04-15T10:12:05.344Z,97413.38
2023-04-15T10:14:38.380Z,97418.66
2023-04-15T10:17:06.021Z,97406.47
2023-04-15T10:19:34.329Z,97413.38
2023-04-15T10:22:00.880Z,97412.44
2023-04-15T10:24:27.880Z,97414.41
2023-04-15T10:26:54.570Z,97425.28
2023-04-15T10:29:21.101Z,97413.16
2023-04-15T10:31:48.419Z,97419.00
2023-04-15T10:34:15.983Z,97421.81
2023-04-15T10:36:42.555Z,97426.03
2023-04-15T10:39:34.250Z,97426.03
2023-04-15T10:42:18.215Z,97425.06
2023-04-15T10:44:49.138Z,97423.44
2023-04-15T10:47:21.569Z,97426.53
2023-04-15T10:49:59.356Z,97433.38
2023-04-15T10:52:28.079Z,97430.81
2023-04-15T10:55:19.343Z,97432.34
2023-04-15T10:57:46.007Z,97428.91
2023-04-15T11:00:16.440Z,97431.50
2023-04-15T11:02:54.793Z,97430.41
2023-04-15T11:05:42.698Z,97431.75
2023-04-15T11:08:13.653Z,97420.13
2023-04-15T11:10:40.274Z,97424.66
2023-04-15T11:13:09.749Z,97423.66
2023-04-15T11:15:44.855Z,97428.28
2023-04-15T11:18:16.334Z,97423.75
2023-04-15T11:20:45.252Z,97427.91
2023-04-15T11:23:15.259Z,97428.22
2023-04-15T11:25:43.001Z,97429.91
2023-04-15T11:28:11.953Z,97430.34
2023-04-15T11:30:39.918Z,97425.09
2023-04-15T11:33:08.641Z,97432.19
2023-04-15T11:35:35.951Z,97438.19
2023-04-15T11:38:06.688Z,97424.81
2023-04-15T11:40:33.448Z,97429.63
2023-04-15T11:43:22.878Z,97432.78
2023-04-15T11:45:53.436Z,97431.31
2023-04-15T11:48:21.719Z,97438.63
2023-04-15T11:50:57.135Z,97435.94
2023-04-15T11:53:24.600Z,97442.66
2023-04-15T11:55:53.060Z,97446.34
2023-04-15T11:58:21.356Z,97453.06
2023-04-15T12:00:56.429Z,97476.38
2023-04-15T12:03:27.340Z,97487.69
2023-04-15T12:06:25.587Z,97481.34
2023-04-15T12:09:07.066Z,97473.56
2023-04-15T12:11:39.215Z,97482.84
2023-04-15T12:14:25.525Z,97480.84
2023-04-15T12:16:54.397Z,97485.25
2023-04-15T12:19:26.721Z,97486.28
2023-04-15T12:22:00.499Z,97503.75
2023-04-15T12:24:27.582Z,97507.84
2023-04-15T12:26:57.331Z,97519.94
2023-04-15T12:29:28.674Z,97534.16
2023-04-15T12:31:57.203Z,97542.59
2023-04-15T12:34:29.561Z,97533.31
2023-04-15T12:36:56.833Z,97552.16
2023-04-15T12:39:24.685Z,97564.06
2023-04-15T12:41:52.393Z,97565.44
2023-04-15T12:44:19.028Z,97561.38
2023-04-15T12:46:46.199Z,97551.84
2023-04-15T12:49:14.721Z,97555.22
2023-04-15T12:51:41.553Z,97559.84
2023-04-15T12:54:08.163Z,97569.88
2023-04-15T12:56:34.719Z,97578.00
2023-04-15T12:59:02.254Z,97572.53
2023-04-15T13:01:28.815Z,97569.13
2023-04-15T13:03:56.023Z,97572.34
2023-04-15T13:06:24.040Z,97566.25
2023-04-15T13:08:58.407Z,97577.47
2023-04-15T13:11:26.080Z,97584.03
2023-04-15T13:13:53.072Z,97577.75
2023-04-15T13:16:19.954Z,97579.13
2023-04-15T13:18:47.004Z,97584.31
2023-04-15T13:21:13.570Z,97589.56
2023-04-15T13:23:41.781Z,97585.97
2023-04-15T13:26:08.368Z,97588.06
2023-04-15T13:28:34.877Z,97584.31
2023-04-15T13:31:01.524Z,97592.31
2023-04-15T13:33:28.184Z,97592.44
2023-04-15T13:35:54.742Z,97602.38
2023-04-15T13:38:21.372Z,97609.22
2023-04-15T13:40:48.474Z,97597.38
2023-04-15T13:43:15.215Z,97600.88
2023-04-15T13:45:41.798Z,97606.25
2023-04-15T13:48:08.415Z,97612.41
2023-04-15T13:50:34.975Z,97610.47
2023-04-15T13:53:01.706Z,97612.94
2023-04-15T13:55:28.806Z,97617.66
2023-04-15T13:57:56.801Z,97614.06
2023-04-15T14:00:23.172Z,97607.81
2023-04-15T14:02:49.867Z,97603.78
2023-04-15T14:05:17.020Z,97599.44
2023-04-15T14:07:43.546Z,97615.50
2023-04-15T14:10:10.228Z,97625.78
2023-04-15T14:12:36.743Z,97623.06
2023-04-15T14:15:03.493Z,97626.88
2023-04-15T14:17:30.072Z,97636.88
2023-04-15T14:19:56.648Z,97632.72
2023-04-15T14:22:23.204Z,97636.69
2023-04-15T14:24:49.915Z,97626.66
2023-04-15T14:27:16.670Z,97639.34
2023-04-15T14:29:43.198Z,97642.88
2023-04-15T14:32:12.337Z,97637.16
2023-04-15T14:34:39.666Z,97647.03
2023-04-15T14:37:06.510Z,97645.75
2023-04-15T14:39:33.074Z,97659.63
2023-04-15T14:41:59.842Z,97665.47
2023-04-15T14:44:26.384Z,97669.97
2023-04-15T14:46:52.932Z,97669.84
2023-04-15T14:49:19.744Z,97673.88
2023-04-15T14:51:46.500Z,97677.22
2023-04-15T14:54:13.117Z,97675.59
2023-04-15T14:56:39.684Z,97681.31
2023-04-15T14:59:06.316Z,97681.22
2023-04-15T15:01:33.818Z,97678.50
2023-04-15T15:04:00.689Z,97685.75
2023-04-15T15:06:27.818Z,97690.50
2023-04-15T15:08:54.369Z,97697.75
2023-04-15T15:11:21.251Z,97710.00
2023-04-15T15:13:47.709Z,97711.59
2023-04-15T15:16:14.716Z,97712.81
2023-04-15T15:18:41.414Z,97714.78
2023-04-15T15:21:07.943Z,97721.78
2023-04-15T15:23:34.932Z,97732.53
2023-04-15T15:26:01.474Z,97735.75
2023-04-15T15:28:27.970Z,97734.41
2023-04-15T15:30:54.667Z,97731.88
2023-04-15T15:33:21.538Z,97740.41
2023-04-15T15:35:48.185Z,97735.03
2023-04-15T15:38:14.865Z,97732.31
2023-04-15T15:40:41.431Z,97735.56
2023-04-15T15:43:08.053Z,97741.38
2023-04-15T15:45:35.783Z,97745.81
2023-04-15T15:48:02.462Z,97740.50
2023-04-15T15:50:29.132Z,97749.03
2023-04-15T15:52:55.795Z,97741.94
2023-04-15T15:55:23.366Z,97769.22
2023-04-15T15:57:50.062Z,97765.84
2023-04-15T16:00:16.663Z,97770.59
2023-04-15T16:05:13.165Z,97792.78
2023-04-15T16:07:39.726Z,97802.78
2023-04-15T16:10:07.474Z,97802.13
2023-04-15T16:12:34.995Z,97809.38
2023-04-15T16:15:01.830Z,97804.09
2023-04-15T16:17:28.720Z,97818.13
2023-04-15T16:20:00.655Z,97809.00
2023-04-15T16:22:31.566Z,97818.66
2023-04-15T16:24:58.988Z,97814.44
2023-04-15T16:27:25.911Z,97817.28
2023-04-15T16:29:52.538Z,97824.09
2023-04-15T16:32:19.884Z,97824.97
2023-04-15T16:34:46.446Z,97832.22
2023-04-15T16:37:13.218Z,97836.94
2023-04-15T16:39:39.760Z,97842.78
2023-04-15T16:42:07.369Z,97838.66
2023-04-15T16:44:34.013Z,97844.00
2023-04-15T16:47:02.750Z,97845.91
2023-04-15T16:49:29.885Z,97851.59
2023-04-15T16:51:56.409Z,97853.09
2023-04-15T16:54:22.914Z,97845.63
2023-04-15T16:56:49.533Z,97859.22
2023-04-15T16:59:16.556Z,97862.13
2023-04-15T17:01:43.300Z,97863.97
2023-04-15T17:04:09.929Z,97870.88
2023-04-15T17:06:36.574Z,97874.59
2023-04-15T17:09:03.608Z,97880.09
2023-04-15T17:11:31.259Z,97881.31
2023-04-15T17:13:57.894Z,97882.41
2023-04-15T17:16:25.435Z,97892.53
2023-04-15T17:18:52.151Z,97889.34
2023-04-15T17:21:18.634Z,97897.19
2023-04-15T17:23:45.429Z,97903.59
2023-04-15T17:26:11.955Z,97901.78
2023-04-15T17:28:38.596Z,97914.50
2023-04-15T17:31:05.326Z,97912.88
2023-04-15T17:34:00.162Z,97913.31
2023-04-15T17:36:18.508Z,97909.84
2023-04-15T17:38:45.507Z,97919.78
2023-04-15T17:41:12.101Z,97924.50
2023-04-15T17:43:38.663Z,97927.91
2023-04-15T17:46:07.140Z,97931.41
2023-04-15T17:48:34.366Z,97938.25
2023-04-15T17:51:01.340Z,97941.19
2023-04-15T17:53:27.884Z,97937.41
2023-04-15T17:55:54.534Z,97944.22
2023-04-15T17:58:21.349Z,97948.13
2023-04-15T18:00:48.284Z,97951.81
2023-04-15T18:03:15.333Z,97948.81
2023-04-15T18:05:42.801Z,97945.78
2023-04-15T18:08:09.674Z,97953.50
2023-04-15T18:10:36.738Z,97961.16
2023-04-15T18:13:03.453Z,97962.22
2023-04-15T18:15:33.235Z,97967.81
2023-04-15T18:18:00.286Z,97974.03
2023-04-15T18:20:26.976Z,97975.34
2023-04-15T18:22:53.705Z,97980.63
2023-04-15T18:25:20.215Z,97975.28
2023-04-15T18:27:46.954Z,97985.13
2023-04-15T18:30:13.480Z,97981.22
2023-04-15T18:32:41.149Z,97985.59
2023-04-15T18:35:08.334Z,97989.25
2023-04-15T18:37:35.411Z,97996.75
2023-04-15T18:40:01.931Z,97995.53
2023-04-15T18:42:28.453Z,98006.16
2023-04-15T18:44:55.304Z,98003.03
2023-04-15T18:47:22.034Z,98009.53
2023-04-15T18:49:48.590Z,98013.94
2023-04-15T18:52:15.189Z,98019.09
2023-04-15T18:54:41.728Z,98012.88
2023-04-15T18:57:08.260Z,98014.34
2023-04-15T18:59:35.253Z,98023.38
2023-04-15T19:02:06.209Z,98029.69
2023-04-15T19:04:33.097Z,98035.50
2023-04-15T19:06:59.685Z,98025.22
2023-04-15T19:09:26.782Z,98032.78
2023-04-15T19:11:53.506Z,98033.59
2023-04-15T19:14:20.043Z,98035.34
2023-04-15T19:16:46.555Z,98040.28
2023-04-15T19:19:14.706Z,98036.59
2023-04-15T19:21:41.366Z,98044.25
2023-04-15T19:24:07.898Z,98041.69
2023-04-15T19:26:34.483Z,98053.09
2023-04-15T19:29:01.434Z,98047.81
2023-04-15T19:31:27.922Z,98053.16
2023-04-15T19:33:54.398Z,98049.16
2023-04-15T19:36:21.312Z,98052.19
2023-04-15T19:38:47.782Z,98054.28
2023-04-15T19:41:14.523Z,98059.84
2023-04-15T19:43:41.053Z,98060.13
2023-04-15T19:46:07.916Z,98063.13
2023-04-15T19:48:34.489Z,98065.63
2023-04-15T19:51:01.131Z,98071.13
2023-04-15T19:53:27.760Z,98065.25
2023-04-15T19:55:54.238Z,98062.03
2023-04-15T19:58:21.026Z,98070.53
2023-04-15T20:00:47.543Z,98068.41
2023-04-15T20:03:14.221Z,98070.75
2023-04-15T20:05:40.951Z,98069.59
2023-04-15T20:08:07.462Z,98069.13
2023-04-15T20:10:35.267Z,98070.97
2023-04-15T20:13:01.729Z,98073.03
2023-04-15T20:15:28.249Z,98058.88
2023-04-15T20:17:54.858Z,98065.09
2023-04-15T20:20:22.233Z,98062.38
2023-04-15T20:22:48.883Z,98062.50
2023-04-15T20:25:15.707Z,98060.06
2023-04-15T20:27:42.221Z,98067.69
2023-04-15T20:30:09.158Z,98065.03
2023-04-15T20:32:36.379Z,98067.53
2023-04-15T20:35:04.386Z,98061.72
2023-04-15T20:37:32.988Z,98073.09
2023-04-15T20:40:00.296Z,98066.47
2023-04-15T20:42:26.903Z,98066.56
2023-04-15T20:44:53.412Z,98067.09
2023-04-15T20:47:20.262Z,98066.97
2023-04-15T20:49:47.445Z,98071.94
2023-04-15T20:52:14.100Z,98072.97
2023-04-15T20:54:40.744Z,98074.72
2023-04-15T20:57:07.264Z,98076.69
2023-04-15T20:59:34.812Z,98079.38
2023-04-15T21:02:02.296Z,98078.38
2023-04-15T21:04:28.912Z,98085.97
2023-04-15T21:06:55.454Z,98084.41
2023-04-15T21:09:22.024Z,98087.53
2023-04-15T21:14:18.622Z,98092.81
2023-04-15T21:16:45.198Z,98096.34
2023-04-15T21:19:11.846Z,98097.13
2023-04-15T21:21:38.477Z,98099.13
2023-04-15T21:24:06.937Z,98108.94
2023-04-15T21:26:33.982Z,98111.84
2023-04-15T21:29:00.744Z,98109.72
2023-04-15T21:31:27.262Z,98109.09
2023-04-15T21:33:53.857Z,98116.03
2023-04-15T21:36:20.459Z,98122.00
2023-04-15T21:38:47.106Z,98118.72
2023-04-15T21:41:13.602Z,98118.88
2023-04-15T21:43:40.178Z,98130.09
2023-04-15T21:46:24.185Z,98129.16
2023-04-15T21:48:55.255Z,98132.25
2023-04-15T21:51:22.140Z,98128.44
2023-04-15T21:53:48.788Z,98130.03
2023-04-15T21:56:15.472Z,98128.56
2023-04-15T21:58:42.476Z,98132.44
2023-04-15T22:01:08.980Z,98133.06
2023-04-15T22:03:35.735Z,98139.75
2023-04-15T22:06:03.756Z,98136.19
2023-04-15T22:08:38.241Z,98141.75
2023-04-15T22:11:19.578Z,98137.47
2023-04-15T22:13:46.742Z,98150.47
2023-04-15T22:16:13.192Z,98144.66
2023-04-15T22:18:39.751Z,98150.75
2023-04-15T22:21:06.319Z,98147.88
2023-04-15T22:23:33.112Z,98150.28
2023-04-15T22:25:59.826Z,98157.59
2023-04-15T22:28:26.308Z,98166.25
2023-04-15T22:30:54.524Z,98159.38
2023-04-15T22:33:21.154Z,98168.91
2023-04-15T22:35:47.682Z,98169.53
2023-04-15T22:38:14.153Z,98170.13
2023-04-15T22:40:40.663Z,98169.00
2023-04-15T22:43:07.163Z,98177.50
2023-04-15T22:45:34.155Z,98182.22
2023-04-15T22:48:00.783Z,98185.13
2023-04-15T22:50:27.471Z,98178.91
2023-04-15T22:52:54.000Z,98185.06
2023-04-15T22:55:20.724Z,98187.81
2023-04-15T22:57:47.299Z,98186.47
2023-04-15T23:00:14.279Z,98182.44
2023-04-15T23:02:41.122Z,98185.38
2023-04-15T23:05:12.523Z,98195.41
2023-04-15T23:07:39.718Z,98185.25
2023-04-15T23:10:08.060Z,98192.28
2023-04-15T23:12:34.733Z,98192.16
2023-04-15T23:15:01.668Z,98186.88
2023-04-15T23:17:28.217Z,98185.19
2023-04-15T23:19:54.729Z,98187.81
2023-04-15T23:22:21.196Z,98193.00
2023-04-15T23:24:47.856Z,98197.34
2023-04-15T23:27:14.366Z,98197.94
2023-04-15T23:29:40.891Z,98194.88
2023-04-15T23:32:07.410Z,98205.56
2023-04-15T23:34:33.914Z,98201.84
2023-04-15T23:37:00.407Z,98205.44
2023-04-15T23:39:27.055Z,98209.19
2023-04-15T23:41:53.635Z,98207.69
2023-04-15T23:44:20.317Z,98204.56
2023-04-15T23:46:46.881Z,98208.41
2023-04-15T23:49:13.438Z,98212.78
2023-04-15T23:51:39.960Z,98214.53
2023-04-15T23:54:06.483Z,98215.09
2023-04-15T23:56:33.122Z,98209.59
2023-04-15T23:58:59.654Z,98214.19
